Golden Eagle, Illinois
Current Conditions -  °F | °C
As of 6:54 AM on Saturday 20 Dec 2014 (Local Time) from KSET Reporting Station
Haze Haze  
Wind Chill: 29°   Ceiling: 7000
Heat Index: 33°   Visibility: 5mi
Dew Point: 31°   Wind: 5mph
Humidity: 92%   Direction: 90°E
Pressure: 30.26"   Gusts: NA
Location:  38.89°N, 90.58°W
Report Text: KSET 201254Z AUTO 09004KT 5SM BR OVC070 01/M01 A3026 RMK AO2 SLP250 T00061006
Loading
Personal Weather Stations






























Interactive Weather Map New forecast layout! Learn more

10-Day Weather Forecast

Advertisements
Track Severe Weather on mobile